Time;durP1;ratioP1;P1;durP2;ratioP2;P2;SDS_P1;SDS_P2;PMS_P1;PMS_P2;Temp;Humidity;BMP_temperature;BMP_pressure;BME280_temperature;BME280_humidity;BME280_pressure;Samples;Min_cycle;Max_cycle;Signal;HPM_P1;HPM_P2
2022/05/09 00:00:30;;;;;;;8.05;5.47;;;;;;;16.44;74.64;99427.53;5097586;28;20467;-69
2022/05/09 00:03:15;;;;;;;7.93;5.30;;;;;;;16.47;74.08;99432.56;5097396;28;20467;-69
2022/05/09 00:06:01;;;;;;;10.93;6.22;;;;;;;16.46;72.75;99417.66;5097821;28;20048;-69
2022/05/09 00:08:50;;;;;;;9.25;5.78;;;;;;;16.33;74.84;99431.06;5098374;28;20036;-69
2022/05/09 00:11:34;;;;;;;10.23;5.78;;;;;;;16.07;76.48;99426.97;5097454;28;20054;-69
2022/05/09 00:14:20;;;;;;;8.85;6.03;;;;;;;16.19;76.60;99433.03;5097172;28;20036;-67
2022/05/09 00:17:05;;;;;;;7.50;5.35;;;;;;;16.30;76.66;99434.81;5097315;28;20039;-69
2022/05/09 00:19:50;;;;;;;8.18;5.72;;;;;;;16.35;76.24;99432.59;5098364;28;20085;-69
2022/05/09 00:22:52;;;;;;;6.78;4.60;;;;;;;16.21;75.75;99427.63;5099447;28;20049;-66
2022/05/09 00:25:37;;;;;;;6.70;4.60;;;;;;;16.21;75.98;99432.91;5107581;28;20067;-64
2022/05/09 00:28:21;;;;;;;8.00;4.80;;;;;;;16.07;76.74;99437.53;5098139;28;20093;-69
2022/05/09 00:31:07;;;;;;;7.47;5.50;;;;;;;15.98;76.42;99440.91;5097129;28;20540;-68
2022/05/09 00:33:52;;;;;;;6.95;5.00;;;;;;;15.81;78.47;99448.38;5098276;28;20060;-69
2022/05/09 00:36:38;;;;;;;9.07;5.82;;;;;;;15.67;79.13;99445.97;5098170;28;20040;-69
2022/05/09 00:39:23;;;;;;;7.03;5.10;;;;;;;15.62;79.64;99444.53;5098230;28;20062;-68
2022/05/09 00:42:11;;;;;;;9.65;4.90;;;;;;;15.82;79.30;99452.69;5097186;28;20478;-69
2022/05/09 00:44:56;;;;;;;6.65;4.97;;;;;;;15.81;79.33;99443.06;5098269;28;20036;-68
2022/05/09 00:47:41;;;;;;;9.57;6.10;;;;;;;15.00;82.00;99444.88;5097004;28;20494;-68
2022/05/09 00:50:30;;;;;;;11.32;5.97;;;;;;;14.31;86.69;99443.81;5096961;28;20056;-68
2022/05/09 00:53:15;;;;;;;9.48;6.20;;;;;;;14.15;87.90;99446.72;5096952;28;20044;-68
2022/05/09 00:56:06;;;;;;;11.32;6.57;;;;;;;14.03;88.32;99440.53;5101241;28;20039;-68
2022/05/09 00:58:57;;;;;;;8.25;5.53;;;;;;;14.33;88.13;99447.16;5116922;28;20032;-66
2022/05/09 01:01:45;;;;;;;11.43;7.88;;;;;;;14.09;88.57;99445.34;5099058;28;20036;-68
2022/05/09 01:04:38;;;;;;;11.93;6.25;;;;;;;14.57;87.77;99437.53;5083216;28;20032;-68
2022/05/09 01:07:24;;;;;;;11.27;7.32;;;;;;;14.51;86.57;99446.72;5103234;28;20047;-69
2022/05/09 01:10:11;;;;;;;9.50;6.15;;;;;;;14.41;87.48;99444.78;5104397;28;20094;-67
2022/05/09 01:13:00;;;;;;;10.95;6.80;;;;;;;14.56;87.35;99444.59;5102398;28;20040;-67
2022/05/09 01:15:49;;;;;;;11.43;6.43;;;;;;;14.85;86.09;99441.59;5094911;28;20080;-69
2022/05/09 01:18:35;;;;;;;11.38;7.07;;;;;;;15.14;84.47;99442.97;5094712;28;20111;-68
2022/05/09 01:21:47;;;;;;;11.32;7.05;;;;;;;15.14;83.98;99446.47;5094377;28;20048;-67
2022/05/09 01:24:31;;;;;;;12.80;7.80;;;;;;;15.21;84.37;99449.44;5079290;28;20042;-70
2022/05/09 01:27:16;;;;;;;14.80;8.70;;;;;;;14.98;84.79;99448.59;5079045;28;20039;-69
2022/05/09 01:30:08;;;;;;;12.57;8.57;;;;;;;15.08;84.44;99446.09;5093219;28;20552;-68
2022/05/09 01:32:57;;;;;;;10.88;6.75;;;;;;;14.68;87.07;99437.56;5078658;28;20486;-68
2022/05/09 01:36:03;;;;;;;14.55;7.60;;;;;;;14.50;88.16;99440.63;5093900;28;20044;-65
2022/05/09 01:39:04;;;;;;;13.88;8.23;;;;;;;14.55;87.24;99440.28;5094176;28;20032;-69
2022/05/09 01:41:51;;;;;;;12.90;8.38;;;;;;;14.49;88.32;99440.75;5095967;28;20044;-67
2022/05/09 01:44:38;;;;;;;11.73;7.50;;;;;;;14.37;89.18;99445.13;5080568;28;20041;-68
2022/05/09 01:50:26;;;;;;;11.43;7.32;;;;;;;14.33;90.60;99447.16;5092994;28;20432;-67
2022/05/09 01:53:11;;;;;;;12.18;7.88;;;;;;;14.24;91.04;99440.78;5093678;28;20093;-68
2022/05/09 01:55:55;;;;;;;13.07;8.80;;;;;;;13.90;92.79;99435.31;5093871;28;20441;-68
2022/05/09 01:58:40;;;;;;;12.10;8.07;;;;;;;14.47;91.65;99427.69;5093544;28;20040;-67
2022/05/09 02:01:33;;;;;;;13.77;8.52;;;;;;;14.55;90.05;99435.03;5092430;28;20066;-69
2022/05/09 02:04:17;;;;;;;12.93;7.78;;;;;;;14.61;89.96;99428.44;5092145;28;20093;-68
2022/05/09 02:07:03;;;;;;;15.00;9.27;;;;;;;14.07;91.90;99431.44;5091833;28;20044;-64
2022/05/09 02:09:49;;;;;;;11.93;7.93;;;;;;;14.00;92.94;99435.50;5093450;28;20490;-68
2022/05/09 02:12:34;;;;;;;14.90;9.13;;;;;;;13.97;92.58;99433.09;5091296;28;20031;-69
2022/05/09 02:15:19;;;;;;;14.07;8.32;;;;;;;13.96;93.22;99432.22;5092227;28;20052;-68
2022/05/09 02:18:04;;;;;;;13.77;8.07;;;;;;;14.01;93.00;99435.38;5093397;28;20109;-68
2022/05/09 02:20:48;;;;;;;15.40;8.95;;;;;;;13.92;93.07;99436.88;5092920;28;20404;-68
2022/05/09 02:23:33;;;;;;;13.23;8.65;;;;;;;13.78;93.86;99443.16;5092373;28;20384;-69
2022/05/09 02:26:18;;;;;;;11.80;7.75;;;;;;;14.10;93.51;99444.41;5093079;28;20482;-68
2022/05/09 02:29:02;;;;;;;11.98;7.50;;;;;;;14.35;92.22;99439.13;5092930;28;20540;-67
2022/05/09 02:31:48;;;;;;;9.63;6.53;;;;;;;14.49;91.68;99430.22;5092203;28;20043;-67
2022/05/09 02:34:33;;;;;;;9.38;6.28;;;;;;;14.76;89.74;99445.75;5093099;28;20036;-68
2022/05/09 02:37:18;;;;;;;13.88;7.53;;;;;;;14.59;89.62;99447.00;5092016;28;20110;-68
2022/05/09 02:40:03;;;;;;;14.10;8.05;;;;;;;14.40;90.65;99455.44;5092601;28;20044;-68
2022/05/09 02:42:48;;;;;;;8.70;6.38;;;;;;;14.33;92.94;99452.41;5093017;28;20051;-67
2022/05/09 02:45:33;;;;;;;14.70;8.00;;;;;;;14.62;90.85;99452.03;5091664;28;20040;-69
2022/05/09 02:48:18;;;;;;;10.05;7.25;;;;;;;14.68;90.48;99442.84;5092179;28;20036;-68
2022/05/09 02:51:05;;;;;;;9.80;6.63;;;;;;;14.85;89.04;99451.31;5092254;28;21279;-67
2022/05/09 02:53:49;;;;;;;11.80;7.38;;;;;;;14.72;89.75;99446.09;5092504;28;20047;-68
2022/05/09 02:56:34;;;;;;;11.68;7.75;;;;;;;14.36;90.42;99449.56;5092442;28;20364;-68
2022/05/09 02:59:20;;;;;;;10.45;6.20;;;;;;;14.15;92.86;99457.25;5091402;28;20050;-69
2022/05/09 03:02:07;;;;;;;11.45;7.82;;;;;;;14.24;92.75;99459.22;5103432;28;20040;-67
2022/05/09 03:04:51;;;;;;;11.10;7.90;;;;;;;14.52;91.49;99454.56;5107738;28;20036;-64
2022/05/09 03:07:36;;;;;;;13.00;8.38;;;;;;;14.78;90.25;99457.03;5093387;28;20368;-69
2022/05/09 03:10:28;;;;;;;10.35;6.47;;;;;;;14.85;90.20;99461.88;5090608;28;20039;-67
2022/05/09 03:13:13;;;;;;;11.73;7.50;;;;;;;14.72;90.33;99454.00;5102010;28;20552;-67
2022/05/09 03:16:01;;;;;;;12.80;7.30;;;;;;;14.67;90.92;99457.00;5107422;28;20040;-65
2022/05/09 03:18:47;;;;;;;13.40;7.90;;;;;;;14.38;91.79;99459.97;5079321;28;20055;-65
2022/05/09 03:21:31;;;;;;;12.65;7.45;;;;;;;14.25;93.42;99455.63;5090189;28;20114;-67
2022/05/09 03:24:16;;;;;;;9.80;6.75;;;;;;;14.47;93.73;99467.22;5089958;28;20036;-67
2022/05/09 03:27:06;;;;;;;12.60;7.85;;;;;;;14.21;93.52;99466.50;5091505;28;20032;-67
2022/05/09 03:29:51;;;;;;;12.85;7.57;;;;;;;14.43;93.50;99467.56;5092216;28;20406;-66
2022/05/09 03:32:35;;;;;;;12.32;7.95;;;;;;;14.07;94.58;99467.50;5090856;28;20067;-67
2022/05/09 03:35:20;;;;;;;9.77;6.68;;;;;;;13.99;95.65;99475.94;5071705;28;20039;-69
2022/05/09 03:38:05;;;;;;;9.10;6.55;;;;;;;14.26;96.38;99467.81;5071491;28;20447;-67
2022/05/09 03:40:50;;;;;;;12.32;8.07;;;;;;;14.58;94.17;99479.59;5071793;28;20036;-66
2022/05/09 03:43:34;;;;;;;9.73;6.00;;;;;;;14.33;94.94;99481.41;5059027;28;20051;-66
2022/05/09 03:46:19;;;;;;;12.20;8.20;;;;;;;14.35;94.04;99491.84;5071934;28;20086;-69
2022/05/09 03:49:04;;;;;;;10.98;7.65;;;;;;;14.44;94.13;99475.38;5071387;28;20087;-68
2022/05/09 03:51:49;;;;;;;9.48;6.88;;;;;;;14.78;92.10;99480.78;5071573;28;20049;-69
2022/05/09 03:54:34;;;;;;;11.35;6.63;;;;;;;14.91;91.01;99482.50;5070605;28;20094;-67
2022/05/09 03:57:21;;;;;;;11.88;8.20;;;;;;;14.98;90.50;99482.88;5071734;28;20048;-66
2022/05/09 04:00:08;;;;;;;13.90;7.72;;;;;;;14.53;91.72;99482.59;5071615;28;20379;-68
2022/05/09 04:03:00;;;;;;;12.75;8.32;;;;;;;14.45;92.24;99492.00;5083617;28;20044;-68
2022/05/09 04:05:45;;;;;;;9.23;6.32;;;;;;;13.83;97.31;99497.25;5071628;28;20115;-69
2022/05/09 04:08:30;;;;;;;16.05;7.90;;;;;;;14.40;94.72;99495.81;5078220;28;20390;-69
2022/05/09 04:11:15;;;;;;;10.77;7.30;;;;;;;14.63;93.17;99493.28;5088763;28;20551;-65
2022/05/09 04:13:59;;;;;;;11.75;7.97;;;;;;;15.03;90.44;99489.47;5094071;28;20036;-69
2022/05/09 04:16:50;;;;;;;11.02;7.13;;;;;;;15.01;90.69;99490.56;5089652;28;20138;-70
2022/05/09 04:19:35;;;;;;;12.55;7.35;;;;;;;14.64;91.98;99502.88;5087686;28;20032;-70
2022/05/09 04:22:19;;;;;;;12.77;8.63;;;;;;;14.59;92.40;99507.63;5090021;28;20040;-69
2022/05/09 04:25:04;;;;;;;10.40;7.22;;;;;;;14.67;92.26;99507.09;5091586;28;20044;-69
2022/05/09 04:27:49;;;;;;;14.75;9.75;;;;;;;14.75;90.81;99509.97;5091662;28;20063;-69
2022/05/09 04:30:36;;;;;;;13.27;8.38;;;;;;;14.84;90.84;99508.50;5091386;28;20040;-71
2022/05/09 04:33:20;;;;;;;14.73;9.63;;;;;;;15.14;90.45;99509.78;5090111;28;20092;-71
2022/05/09 04:36:05;;;;;;;13.90;8.07;;;;;;;14.68;92.07;99511.41;5091268;28;20040;-69
2022/05/09 04:38:51;;;;;;;13.32;8.80;;;;;;;14.72;90.38;99519.94;5104467;28;20036;-70
2022/05/09 04:41:36;;;;;;;13.57;9.65;;;;;;;14.25;91.49;99518.84;5090099;28;20044;-68
2022/05/09 04:44:24;;;;;;;14.55;9.02;;;;;;;14.23;94.35;99527.84;5090301;28;20036;-66
2022/05/09 04:47:09;;;;;;;15.40;10.35;;;;;;;13.95;94.67;99527.16;5093654;28;20039;-66
2022/05/09 04:49:53;;;;;;;13.40;9.13;;;;;;;13.86;95.20;99528.66;5093953;28;20126;-69
2022/05/09 04:52:38;;;;;;;15.05;8.82;;;;;;;14.13;95.98;99536.38;5108382;28;20048;-64
2022/05/09 04:55:24;;;;;;;14.90;9.23;;;;;;;14.28;94.31;99536.25;5094870;28;20040;-69
2022/05/09 04:58:18;;;;;;;13.32;8.60;;;;;;;14.10;94.01;99533.97;5107786;28;20035;-66
2022/05/09 05:01:04;;;;;;;13.13;9.55;;;;;;;13.98;94.09;99538.34;5093510;28;20048;-64
2022/05/09 05:03:48;;;;;;;16.38;10.73;;;;;;;14.11;94.62;99540.94;5094581;28;20043;-61
2022/05/09 05:06:33;;;;;;;13.70;9.57;;;;;;;13.62;97.27;99538.16;5093482;28;20036;-64
2022/05/09 05:09:18;;;;;;;13.77;9.65;;;;;;;13.89;96.72;99538.97;5107964;28;20039;-68
2022/05/09 05:12:03;;;;;;;13.30;8.90;;;;;;;14.02;96.18;99538.94;5094607;28;20052;-69
2022/05/09 05:14:48;;;;;;;14.63;10.10;;;;;;;13.65;97.03;99537.94;5094424;28;20047;-71
2022/05/09 05:17:33;;;;;;;14.70;9.80;;;;;;;14.20;95.18;99543.88;5093446;28;20036;-68
2022/05/09 05:20:20;;;;;;;16.20;9.57;;;;;;;14.77;92.57;99531.00;5094049;28;20047;-64
2022/05/09 05:23:04;;;;;;;15.45;9.60;;;;;;;14.75;91.78;99536.34;5092406;28;20122;-66
2022/05/09 05:25:49;;;;;;;15.00;9.40;;;;;;;15.15;90.58;99539.66;5074485;28;20106;-63
2022/05/09 05:28:34;;;;;;;11.95;8.05;;;;;;;15.63;87.84;99543.91;5058853;28;20043;-64
2022/05/09 05:31:19;;;;;;;15.65;9.27;;;;;;;15.73;87.18;99556.41;5090337;28;20786;-60
2022/05/09 05:34:03;;;;;;;12.52;8.07;;;;;;;15.91;88.06;99550.66;5094493;28;20036;-48
2022/05/09 05:36:50;;;;;;;11.25;8.13;;;;;;;16.23;85.34;99549.94;5094241;28;20060;-64
2022/05/09 05:39:37;;;;;;;14.13;8.38;;;;;;;16.67;84.23;99559.66;5092930;28;20036;-67
2022/05/09 05:42:22;;;;;;;11.23;7.63;;;;;;;17.08;83.08;99554.56;5093137;28;20428;-64
2022/05/09 05:45:10;;;;;;;13.77;8.07;;;;;;;17.07;84.52;99551.06;5098909;28;20040;-68
2022/05/09 05:47:55;;;;;;;14.15;9.02;;;;;;;16.31;82.71;99555.44;5094282;28;20047;-66
2022/05/09 05:50:40;;;;;;;13.38;9.23;;;;;;;16.29;81.44;99556.53;5093518;28;20094;-67
2022/05/09 05:53:25;;;;;;;13.30;8.48;;;;;;;16.06;85.98;99564.50;5094227;28;20051;-63
2022/05/09 05:56:10;;;;;;;12.88;8.98;;;;;;;15.96;81.06;99569.63;5078687;28;20101;-65
2022/05/09 05:58:55;;;;;;;13.55;9.15;;;;;;;15.56;84.19;99563.00;5093305;28;20093;-67
2022/05/09 06:01:40;;;;;;;12.52;8.68;;;;;;;16.53;81.47;99564.31;5094174;28;20506;-65
2022/05/09 06:04:25;;;;;;;14.55;8.30;;;;;;;16.38;83.08;99569.88;5092760;28;20097;-69
2022/05/09 06:07:13;;;;;;;12.00;8.50;;;;;;;16.04;82.22;99571.69;5078154;28;20036;-68
2022/05/09 06:09:58;;;;;;;12.63;9.25;;;;;;;16.02;82.54;99571.81;5078274;28;20040;-71
2022/05/09 06:12:43;;;;;;;13.30;8.85;;;;;;;16.03;81.79;99580.59;5093242;28;20063;-70
2022/05/09 06:15:29;;;;;;;17.42;9.10;;;;;;;16.28;80.44;99581.28;5093341;28;20040;-61
2022/05/09 06:18:14;;;;;;;13.85;8.60;;;;;;;16.89;76.95;99581.72;5092419;28;20375;-64
2022/05/09 06:20:59;;;;;;;12.10;8.43;;;;;;;16.71;77.42;99584.91;5095757;28;20050;-62
2022/05/09 06:23:44;;;;;;;12.35;8.93;;;;;;;16.69;77.26;99585.03;5095747;28;20037;-64
2022/05/09 06:26:29;;;;;;;15.60;9.10;;;;;;;16.93;76.37;99586.63;5094342;28;20420;-65
2022/05/09 06:29:13;;;;;;;12.52;8.82;;;;;;;16.36;78.05;99592.94;5097946;28;20491;-59
2022/05/09 06:31:59;;;;;;;13.80;8.45;;;;;;;16.47;79.38;99596.50;5099487;28;20032;-61
2022/05/09 06:34:43;;;;;;;13.43;8.93;;;;;;;16.65;78.38;99598.66;5092746;28;20475;-59
2022/05/09 06:37:32;;;;;;;11.93;8.88;;;;;;;16.72;77.29;99602.47;5092661;28;20040;-58
2022/05/09 06:40:17;;;;;;;12.35;8.65;;;;;;;16.51;79.01;99590.03;5089734;28;20040;-62
2022/05/09 06:43:03;;;;;;;14.25;9.07;;;;;;;16.45;78.66;99591.34;5072549;28;20044;-61
2022/05/09 06:45:51;;;;;;;12.18;8.10;;;;;;;16.80;79.04;99594.75;5072235;28;20388;-62
2022/05/09 06:48:37;;;;;;;15.02;8.82;;;;;;;17.32;75.26;99596.72;5084601;28;20040;-60
2022/05/09 06:51:22;;;;;;;12.25;8.57;;;;;;;16.85;76.60;99589.06;5090591;28;20062;-61
2022/05/09 06:54:07;;;;;;;12.98;7.72;;;;;;;17.27;77.13;99603.38;5092318;28;20056;-58
2022/05/09 06:56:51;;;;;;;14.88;10.68;;;;;;;18.59;71.70;99596.56;5090602;28;20040;-60
2022/05/09 06:59:36;;;;;;;11.68;7.90;;;;;;;18.37;70.38;99602.94;5075257;28;20036;-61
2022/05/09 07:02:21;;;;;;;11.27;7.93;;;;;;;18.19;70.75;99599.13;5090311;28;20048;-60
2022/05/09 07:05:08;;;;;;;10.60;7.68;;;;;;;18.88;69.97;99603.75;5089773;28;20032;-60
2022/05/09 07:07:56;;;;;;;11.00;7.45;;;;;;;18.96;69.49;99600.38;5076655;28;20044;-62
2022/05/09 07:10:42;;;;;;;13.30;6.97;;;;;;;19.60;67.23;99593.75;5090314;28;20035;-60
2022/05/09 07:13:27;;;;;;;10.32;7.32;;;;;;;20.13;63.64;99597.66;5072355;28;20028;-62
2022/05/09 07:16:13;;;;;;;14.77;7.70;;;;;;;19.02;67.16;99613.09;5085383;28;20132;-60
2022/05/09 07:18:58;;;;;;;10.02;6.88;;;;;;;19.37;67.17;99608.22;5071054;28;20120;-52
2022/05/09 07:21:43;;;;;;;11.68;6.95;;;;;;;19.63;64.71;99604.94;5085640;28;20097;-59
2022/05/09 07:24:28;;;;;;;10.20;6.40;;;;;;;20.17;64.45;99603.53;5091956;28;20541;-60
2022/05/09 07:27:13;;;;;;;11.15;7.25;;;;;;;20.77;60.46;99606.66;5091796;28;20036;-59
2022/05/09 07:29:58;;;;;;;9.20;6.57;;;;;;;20.84;60.95;99606.88;5076669;28;20437;-58
2022/05/09 07:32:43;;;;;;;8.45;5.95;;;;;;;21.04;59.11;99618.25;5076255;28;20075;-58
2022/05/09 07:35:28;;;;;;;8.65;5.97;;;;;;;20.15;62.54;99606.31;5090604;28;20068;-58
2022/05/09 07:38:13;;;;;;;9.00;6.43;;;;;;;19.67;64.51;99603.66;5090521;28;20039;-59
2022/05/09 07:40:58;;;;;;;8.98;5.88;;;;;;;20.01;64.63;99604.13;5070663;28;20060;-59
2022/05/09 07:43:43;;;;;;;10.52;6.32;;;;;;;20.03;63.20;99608.34;5071969;28;20040;-58
2022/05/09 07:46:27;;;;;;;8.07;6.15;;;;;;;20.41;61.35;99610.09;5075213;28;20028;-58
2022/05/09 07:49:13;;;;;;;8.48;6.28;;;;;;;20.72;60.87;99611.59;5090821;28;20040;-61
2022/05/09 07:51:57;;;;;;;9.60;5.90;;;;;;;21.35;58.50;99609.03;5102071;28;20458;-59
2022/05/09 07:54:43;;;;;;;10.75;6.10;;;;;;;21.29;58.61;99613.97;5090358;28;20052;-61
2022/05/09 07:57:28;;;;;;;10.90;6.57;;;;;;;20.23;61.86;99615.38;5084374;28;20093;-59
2022/05/09 08:00:13;;;;;;;8.90;5.65;;;;;;;21.01;59.71;99615.88;5099898;28;20031;-63
2022/05/09 08:03:14;;;;;;;9.68;6.25;;;;;;;21.03;58.96;99620.09;5090156;28;20116;-59
2022/05/09 08:06:00;;;;;;;8.82;5.45;;;;;;;21.52;57.59;99621.47;5091023;28;20105;-59
2022/05/09 08:08:46;;;;;;;7.45;5.25;;;;;;;21.42;57.35;99621.56;5090133;28;20044;-61
2022/05/09 08:11:31;;;;;;;9.18;5.70;;;;;;;20.97;59.02;99625.19;5089856;28;20051;-59
2022/05/09 08:14:16;;;;;;;7.53;5.55;;;;;;;20.96;59.16;99618.16;5091148;28;20083;-59
2022/05/09 08:17:02;;;;;;;9.23;5.80;;;;;;;21.44;57.39;99615.22;5089918;28;20467;-62
2022/05/09 08:19:49;;;;;;;10.05;5.40;;;;;;;21.27;57.91;99621.28;5090360;28;20046;-58
2022/05/09 08:22:34;;;;;;;7.65;5.53;;;;;;;21.90;55.27;99615.88;5091647;28;20059;-60
2022/05/09 08:25:19;;;;;;;7.03;4.68;;;;;;;22.56;54.88;99618.94;5093179;28;20086;-60
2022/05/09 08:28:06;;;;;;;7.90;5.43;;;;;;;23.18;51.46;99617.72;5095010;28;20059;-60
2022/05/09 08:30:52;;;;;;;7.97;5.18;;;;;;;23.21;51.05;99617.38;5091295;28;20056;-59
2022/05/09 08:33:37;;;;;;;7.00;4.93;;;;;;;24.14;50.78;99610.88;5094695;28;20133;-59
2022/05/09 08:39:38;;;;;;;9.18;5.25;;;;;;;21.02;55.89;99615.72;5075588;28;20063;-59
2022/05/09 08:42:30;;;;;;;7.35;5.28;;;;;;;20.97;56.31;99611.88;5093706;28;20119;-60
2022/05/09 08:45:31;;;;;;;10.13;5.57;;;;;;;21.60;55.90;99606.50;5079036;28;20024;-61
2022/05/09 08:48:53;;;;;;;7.78;5.22;;;;;;;20.77;57.45;99618.16;5094637;28;20445;-59
2022/05/09 08:51:42;;;;;;;8.93;5.75;;;;;;;20.27;58.61;99612.28;5094913;28;20082;-60
2022/05/09 08:54:29;;;;;;;10.15;5.00;;;;;;;20.68;57.62;99617.22;5094901;28;20051;-59
2022/05/09 08:57:20;;;;;;;7.15;5.47;;;;;;;22.52;55.55;99613.13;5108321;28;20044;-63
2022/05/09 09:00:11;;;;;;;7.78;5.22;;;;;;;23.12;52.56;99611.22;5094077;28;20047;-62
2022/05/09 09:03:06;;;;;;;8.00;5.18;;;;;;;22.70;53.85;99621.00;5093101;28;20039;-62
2022/05/09 09:05:54;;;;;;;5.72;4.70;;;;;;;21.78;54.45;99625.16;5094539;28;20423;-64
2022/05/09 09:09:21;;;;;;;9.60;5.53;;;;;;;21.18;59.11;99627.53;5092481;28;20036;-65
2022/05/09 09:12:20;;;;;;;10.30;6.28;;;;;;;21.25;59.32;99628.56;5081686;28;20043;-65
2022/05/09 09:15:17;;;;;;;9.27;5.57;;;;;;;21.46;57.21;99626.56;5094717;28;20059;-64
2022/05/09 09:18:19;;;;;;;8.10;5.75;;;;;;;21.48;55.44;99622.75;5094557;28;20091;-67
2022/05/09 09:21:22;;;;;;;8.10;4.85;;;;;;;21.64;56.09;99618.53;5094581;28;20089;-61
2022/05/09 09:24:19;;;;;;;9.85;5.05;;;;;;;23.77;50.96;99631.06;5094197;28;20387;-60
2022/05/09 09:27:32;;;;;;;9.38;5.57;;;;;;;23.34;49.17;99637.44;5094050;28;20064;-61
2022/05/09 09:30:21;;;;;;;6.78;4.65;;;;;;;23.03;49.92;99630.09;5094087;28;20445;-67
2022/05/09 09:33:10;;;;;;;7.05;5.38;;;;;;;21.28;54.53;99633.59;5094507;28;20378;-72
2022/05/09 09:36:10;;;;;;;10.60;5.55;;;;;;;21.29;60.03;99631.78;5107815;28;20058;-61
2022/05/09 09:39:02;;;;;;;11.10;5.57;;;;;;;21.58;55.05;99628.00;5086164;28;20071;-64
2022/05/09 09:41:50;;;;;;;9.65;4.68;;;;;;;20.57;58.00;99628.06;5107810;28;20482;-67
2022/05/09 09:44:38;;;;;;;8.38;4.57;;;;;;;21.03;56.14;99630.75;5093901;28;20055;-65
2022/05/09 09:47:25;;;;;;;9.00;4.53;;;;;;;21.65;54.25;99630.88;5092503;28;20755;-64
2022/05/09 09:50:22;;;;;;;6.88;4.70;;;;;;;22.10;57.11;99625.50;5092624;28;20054;-64
2022/05/09 09:53:08;;;;;;;6.28;4.78;;;;;;;24.19;48.18;99626.44;5086037;28;20128;-61
2022/05/09 09:56:07;;;;;;;6.75;5.03;;;;;;;24.42;45.31;99621.13;5106726;28;20040;-60
2022/05/09 09:58:52;;;;;;;6.32;4.60;;;;;;;25.64;43.94;99617.91;5093295;28;20044;-63
2022/05/09 10:01:37;;;;;;;9.80;4.40;;;;;;;26.63;41.11;99620.44;5093061;28;20043;-59
2022/05/09 10:04:28;;;;;;;5.65;4.07;;;;;;;27.41;38.93;99618.88;5092463;28;20112;-66
2022/05/09 10:07:28;;;;;;;5.75;4.07;;;;;;;26.85;39.83;99617.75;5093189;28;20086;-67
2022/05/09 10:10:20;;;;;;;4.78;3.85;;;;;;;24.51;44.26;99611.22;5092857;28;20546;-66
2022/05/09 10:13:17;;;;;;;6.38;4.13;;;;;;;23.66;46.46;99614.38;5106526;28;20036;-65
2022/05/09 10:16:08;;;;;;;5.28;3.67;;;;;;;23.24;46.69;99609.03;5092342;28;20063;-67
2022/05/09 10:18:53;;;;;;;5.45;4.10;;;;;;;25.20;43.01;99606.09;5092976;28;20040;-67
2022/05/09 10:24:48;;;;;;;6.18;3.55;;;;;;;27.02;38.66;99596.84;5091906;28;20089;-66
2022/05/09 10:27:34;;;;;;;3.28;2.88;;;;;;;27.20;37.69;99592.88;5092183;28;20086;-63
2022/05/09 10:30:24;;;;;;;7.00;3.33;;;;;;;26.80;36.76;99587.94;5092523;28;20052;-67
2022/05/09 10:33:31;;;;;;;5.28;3.28;;;;;;;26.78;37.58;99590.81;5093263;28;20096;-62
2022/05/09 10:36:52;;;;;;;9.55;3.45;;;;;;;26.64;38.71;99589.84;5092242;28;20112;-63
2022/05/09 10:39:43;;;;;;;5.83;3.27;;;;;;;26.23;39.04;99590.41;5068557;28;20467;-64
2022/05/09 10:42:38;;;;;;;4.75;3.30;;;;;;;24.70;41.29;99587.66;5105576;28;20286;-63
2022/05/09 10:45:26;;;;;;;4.75;3.33;;;;;;;25.23;41.11;99581.59;5092830;28;20077;-62
2022/05/09 10:48:18;;;;;;;4.70;3.40;;;;;;;26.56;38.69;99577.38;5105712;28;20044;-63
2022/05/09 10:51:14;;;;;;;4.07;3.17;;;;;;;27.40;37.04;99576.84;5092336;28;20403;-64
2022/05/09 10:54:10;;;;;;;4.85;2.80;;;;;;;26.84;38.52;99567.72;5092760;28;20040;-63
2022/05/09 10:56:58;;;;;;;4.85;3.88;;;;;;;27.62;37.45;99573.25;5092499;28;20040;-68
2022/05/09 10:59:45;;;;;;;7.55;3.03;;;;;;;27.33;36.25;99573.31;5092495;28;20540;-67
2022/05/09 11:02:37;;;;;;;4.45;3.10;;;;;;;26.53;38.14;99564.34;5106006;28;20039;-60
2022/05/09 11:05:27;;;;;;;4.28;2.40;;;;;;;25.81;38.03;99558.72;5091377;28;20044;-64
2022/05/09 11:08:53;;;;;;;4.32;3.05;;;;;;;26.08;38.37;99559.06;5091147;28;20047;-63
2022/05/09 11:11:59;;;;;;;3.65;2.88;;;;;;;25.16;39.94;99552.00;5091333;28;20036;-71
2022/05/09 11:14:58;;;;;;;7.05;3.25;;;;;;;26.38;37.89;99550.97;5092095;28;20042;-66
2022/05/09 11:18:02;;;;;;;3.33;2.28;;;;;;;26.07;37.74;99543.97;5092399;28;20097;-66
2022/05/09 11:20:59;;;;;;;6.05;3.10;;;;;;;24.93;39.97;99549.34;5091787;28;20122;-63
2022/05/09 11:24:16;;;;;;;4.60;2.75;;;;;;;25.02;40.19;99542.09;5091099;28;20090;-63
2022/05/09 11:27:26;;;;;;;5.93;2.72;;;;;;;24.36;41.82;99534.34;5090935;28;20040;-63
2022/05/09 11:30:21;;;;;;;3.40;2.50;;;;;;;26.40;37.36;99531.97;5090409;28;20046;-62
2022/05/09 11:33:32;;;;;;;3.65;2.70;;;;;;;27.02;35.92;99535.03;5090236;28;20040;-64
2022/05/09 11:36:16;;;;;;;3.15;2.75;;;;;;;29.60;32.50;99523.06;5075170;28;20510;-66
2022/05/09 11:39:27;;;;;;;4.68;2.88;;;;;;;29.52;33.04;99517.88;5091260;28;20028;-68
2022/05/09 11:45:39;;;;;;;10.30;2.75;;;;;;;28.65;31.86;99508.81;5091556;28;20044;-65
2022/05/09 11:48:46;;;;;;;5.57;2.38;;;;;;;29.10;31.60;99508.19;5091313;28;20042;-67
2022/05/09 11:51:50;;;;;;;2.60;2.40;;;;;;;29.07;30.45;99507.81;5105299;28;20140;-63
2022/05/09 11:54:48;;;;;;;2.80;1.73;;;;;;;30.09;28.56;99505.63;5100236;28;20032;-64
2022/05/09 11:57:34;;;;;;;3.05;2.28;;;;;;;28.59;30.84;99494.31;5092909;28;20171;-61
2022/05/09 12:00:41;;;;;;;3.05;2.03;;;;;;;28.90;30.66;99497.44;5090870;28;20047;-59
2022/05/09 12:03:40;;;;;;;2.33;1.85;;;;;;;28.55;31.20;99494.91;5090206;28;20053;-65
2022/05/09 12:06:36;;;;;;;3.27;2.17;;;;;;;28.25;30.45;99498.81;5090152;28;20051;-66
2022/05/09 12:10:00;;;;;;;3.22;1.98;;;;;;;27.28;33.53;99495.09;5090971;28;20285;-62
2022/05/09 12:12:49;;;;;;;3.15;2.17;;;;;;;27.32;32.50;99482.91;5088575;28;20032;-60
2022/05/09 12:15:37;;;;;;;3.70;2.38;;;;;;;27.10;33.25;99484.84;5090012;28;20045;-61
2022/05/09 12:18:47;;;;;;;2.88;1.90;;;;;;;26.79;34.40;99486.84;5058608;28;20746;-61
2022/05/09 12:21:37;;;;;;;3.05;2.40;;;;;;;26.51;35.15;99490.34;5087097;28;20059;-61
2022/05/09 12:24:30;;;;;;;3.05;2.05;;;;;;;25.83;35.63;99489.63;5091050;28;20036;-63
2022/05/09 12:27:52;;;;;;;3.22;1.90;;;;;;;23.49;43.41;99483.41;5089569;28;20052;-62
2022/05/09 12:31:02;;;;;;;3.85;2.70;;;;;;;22.40;50.29;99488.00;5091255;28;20044;-61
2022/05/09 12:33:47;;;;;;;3.78;2.70;;;;;;;21.57;53.82;99486.88;5091452;28;20082;-59
2022/05/09 12:36:36;;;;;;;4.97;2.40;;;;;;;21.85;54.59;99484.88;5091119;28;20047;-59
2022/05/09 12:39:31;;;;;;;3.53;2.50;;;;;;;21.93;50.77;99481.41;5090193;28;20521;-59
2022/05/09 12:42:41;;;;;;;5.50;2.15;;;;;;;21.87;52.54;99480.19;5088635;28;20047;-60
2022/05/09 12:45:28;;;;;;;4.95;2.63;;;;;;;21.80;52.32;99491.66;5090060;28;20050;-64
2022/05/09 12:48:14;;;;;;;4.00;2.83;;;;;;;22.13;50.86;99489.94;5061927;28;20075;-59
2022/05/09 12:51:10;;;;;;;3.85;2.35;;;;;;;22.11;50.96;99481.28;5090336;28;20093;-60
2022/05/09 12:53:55;;;;;;;3.95;2.53;;;;;;;22.33;50.43;99480.78;5070915;28;20430;-60
2022/05/09 12:56:52;;;;;;;5.78;2.97;;;;;;;22.93;49.00;99475.34;5085701;28;20494;-62
2022/05/09 12:59:44;;;;;;;3.88;2.90;;;;;;;24.27;44.57;99470.34;5099641;28;20115;-59
2022/05/09 13:02:37;;;;;;;4.35;2.60;;;;;;;26.19;38.03;99471.84;5071494;28;20086;-59
2022/05/09 13:05:37;;;;;;;3.13;2.53;;;;;;;26.51;34.95;99467.00;5082995;28;20040;-62
2022/05/09 13:08:25;;;;;;;5.18;2.33;;;;;;;27.60;33.99;99456.97;5079472;28;20162;-60
2022/05/09 13:11:16;;;;;;;3.55;2.15;;;;;;;28.61;32.88;99449.13;5093209;28;20036;-61
2022/05/09 13:14:22;;;;;;;2.78;2.15;;;;;;;27.09;33.74;99450.94;5093826;28;20371;-62
2022/05/09 13:17:15;;;;;;;3.15;2.10;;;;;;;25.32;36.20;99449.16;5087049;28;20040;-62
2022/05/09 13:20:01;;;;;;;5.47;2.15;;;;;;;24.95;37.96;99451.72;5082004;28;20541;-61
2022/05/09 13:22:47;;;;;;;3.03;2.40;;;;;;;24.47;40.17;99442.06;5087474;28;20036;-60
2022/05/09 13:25:34;;;;;;;3.40;2.00;;;;;;;23.82;41.76;99450.34;5073245;28;20361;-59